Time;durP1;ratioP1;P1;durP2;ratioP2;P2;SDS_P1;SDS_P2;PMS_P1;PMS_P2;Temp;Humidity;BMP_temperature;BMP_pressure;BME280_temperature;BME280_humidity;BME280_pressure;Samples;Min_cycle;Max_cycle;Signal;HPM_P1;HPM_P2
2022/01/25 00:26:26;;;;;;;129.63;39.08;;;-1.50;99.90;;;;;;4958140;29;20394;-89
2022/01/25 00:31:18;;;;;;;119.97;39.58;;;-1.70;99.90;;;;;;4974619;28;20557;-88
2022/01/25 00:33:52;;;;;;;122.22;41.28;;;-1.70;99.90;;;;;;4926401;29;20023;-88
2022/01/25 00:36:23;;;;;;;111.93;37.47;;;-1.80;99.90;;;;;;4925610;29;20114;-88
2022/01/25 00:38:49;;;;;;;107.53;37.60;;;-1.80;99.90;;;;;;4926670;29;20035;-89
2022/01/25 00:41:16;;;;;;;108.47;36.45;;;-2.00;99.90;;;;;;4926054;29;20043;-88
2022/01/25 00:43:42;;;;;;;113.95;38.03;;;-2.10;99.90;;;;;;4926112;29;20038;-88
2022/01/25 00:46:11;;;;;;;112.57;38.75;;;-2.20;99.90;;;;;;4926771;29;20543;-88
2022/01/25 00:51:20;;;;;;;110.03;39.38;;;-2.30;99.90;;;;;;4974134;28;20394;-88
2022/01/25 00:53:59;;;;;;;112.78;38.28;;;-2.30;99.90;;;;;;4926565;29;20035;-89
2022/01/25 00:56:30;;;;;;;118.68;36.75;;;-2.30;99.90;;;;;;4958091;29;20470;-88
2022/01/25 00:58:58;;;;;;;118.03;38.53;;;-2.40;99.90;;;;;;4926373;29;20031;-88
2022/01/25 01:01:25;;;;;;;114.07;40.95;;;-2.50;99.90;;;;;;4959445;29;20031;-89
2022/01/25 01:03:51;;;;;;;117.13;40.58;;;-2.50;99.90;;;;;;4926533;29;20081;-89
2022/01/25 01:06:17;;;;;;;116.88;40.95;;;-2.50;99.90;;;;;;4925701;29;20426;-89
2022/01/25 01:08:43;;;;;;;122.15;40.53;;;-2.40;99.90;;;;;;4925591;29;20039;-89
2022/01/25 01:11:15;;;;;;;108.60;38.25;;;-2.50;99.90;;;;;;4973392;28;20045;-89
2022/01/25 01:38:36;;;;;;;151.20;48.63;;;-2.50;99.90;;;;;;4973517;28;20082;-88
2022/01/25 01:40:56;;;;;;;155.63;50.85;;;-2.50;99.90;;;;;;4940477;29;20039;-88
2022/01/25 01:46:39;;;;;;;166.10;50.20;;;-2.30;99.90;;;;;;4972727;28;20490;-89
2022/01/25 01:49:05;;;;;;;154.75;48.75;;;-2.20;99.90;;;;;;4932862;29;20450;-88
2022/01/25 01:51:34;;;;;;;145.45;46.97;;;-2.20;99.90;;;;;;4940612;29;20066;-88
2022/01/25 01:54:10;;;;;;;143.85;47.35;;;-2.20;99.90;;;;;;4925336;29;20078;-89
2022/01/25 01:56:37;;;;;;;147.00;46.25;;;-2.20;99.90;;;;;;4941153;29;20050;-89
2022/01/25 01:59:07;;;;;;;144.25;45.95;;;-2.40;99.90;;;;;;4925460;29;20039;-89
2022/01/25 02:01:34;;;;;;;159.27;47.22;;;-2.40;99.90;;;;;;4957206;29;20035;-89
2022/01/25 02:04:02;;;;;;;149.10;45.00;;;-2.50;99.90;;;;;;4940629;29;20039;-89
2022/01/25 02:06:28;;;;;;;144.98;43.92;;;-2.50;99.90;;;;;;4925276;29;20126;-88
2022/01/25 02:08:54;;;;;;;126.28;43.67;;;-2.60;99.90;;;;;;4925103;29;20039;-89
2022/01/25 02:11:21;;;;;;;133.70;42.95;;;-2.70;99.90;;;;;;4956616;28;20077;-88
2022/01/25 02:13:48;;;;;;;132.18;43.45;;;-2.80;99.90;;;;;;4925196;29;20024;-89
2022/01/25 02:16:39;;;;;;;139.32;42.92;;;-2.80;99.90;;;;;;4924971;29;20027;-89
2022/01/25 02:22:35;;;;;;;131.23;41.55;;;-2.90;99.90;;;;;;4973677;28;20021;-89
2022/01/25 02:24:41;;;;;;;153.37;42.60;;;-2.90;99.90;;;;;;4935480;29;20047;-88
2022/01/25 02:27:07;;;;;;;132.13;42.72;;;-3.00;99.90;;;;;;4940646;29;20398;-89
2022/01/25 02:29:33;;;;;;;131.38;41.40;;;-3.00;99.90;;;;;;4940943;29;20038;-88
2022/01/25 02:31:59;;;;;;;140.15;45.05;;;-2.90;99.90;;;;;;4941367;29;20032;-89
2022/01/25 02:34:25;;;;;;;137.23;43.88;;;-2.90;99.90;;;;;;4925226;29;20408;-89
2022/01/25 02:37:06;;;;;;;160.40;46.10;;;-2.90;99.90;;;;;;4925362;29;20038;-89
2022/01/25 02:39:33;;;;;;;151.93;45.72;;;-2.90;99.90;;;;;;4941595;29;20086;-89
2022/01/25 02:41:59;;;;;;;147.77;46.03;;;-3.00;99.90;;;;;;4924910;29;20063;-89
2022/01/25 02:44:26;;;;;;;149.52;47.15;;;-3.10;99.90;;;;;;4925005;29;20031;-89
2022/01/25 02:49:34;;;;;;;152.07;46.45;;;-3.20;99.90;;;;;;4972930;28;20019;-89
2022/01/25 02:52:02;;;;;;;155.63;45.45;;;-3.20;99.90;;;;;;4940561;29;20039;-89
2022/01/25 02:54:28;;;;;;;158.18;49.67;;;-3.20;99.90;;;;;;4924770;29;20032;-88
2022/01/25 02:56:54;;;;;;;167.63;51.25;;;-3.20;99.90;;;;;;4924570;29;20394;-90
2022/01/25 02:59:20;;;;;;;159.50;49.88;;;-3.10;99.90;;;;;;4958793;28;20039;-89
2022/01/25 03:02:05;;;;;;;149.05;48.28;;;-3.00;99.90;;;;;;4960448;29;20505;-89
2022/01/25 03:04:30;;;;;;;170.00;50.88;;;-3.00;99.90;;;;;;4927833;29;20046;-89
2022/01/25 03:06:56;;;;;;;165.77;50.05;;;-3.00;99.90;;;;;;4944693;29;20035;-89
2022/01/25 03:09:22;;;;;;;182.68;51.78;;;-3.00;99.90;;;;;;4928485;29;20499;-89
2022/01/25 03:11:51;;;;;;;177.30;51.72;;;-3.00;99.90;;;;;;4944327;29;20537;-89
2022/01/25 03:14:19;;;;;;;176.02;50.90;;;-3.00;99.90;;;;;;4944811;29;20540;-89
2022/01/25 03:16:53;;;;;;;172.75;51.83;;;-3.00;99.90;;;;;;4928254;29;20042;-88
2022/01/25 03:21:55;;;;;;;178.20;54.15;;;-2.90;99.90;;;;;;4976540;28;20130;-89
2022/01/25 03:24:20;;;;;;;184.50;54.45;;;-2.90;99.90;;;;;;4944073;29;20035;-89
2022/01/25 03:26:46;;;;;;;162.55;51.65;;;-2.90;99.90;;;;;;4928196;29;20031;-89
2022/01/25 03:29:12;;;;;;;173.43;50.42;;;-2.90;99.90;;;;;;4944144;29;20470;-88
2022/01/25 03:31:38;;;;;;;183.63;54.90;;;-2.90;99.90;;;;;;4928149;29;20113;-89
2022/01/25 03:34:04;;;;;;;170.90;53.90;;;-2.90;99.90;;;;;;4927454;29;20042;-90
2022/01/25 03:36:45;;;;;;;186.13;52.95;;;-2.90;99.90;;;;;;4928284;29;20023;-89
2022/01/25 03:39:11;;;;;;;194.55;55.05;;;-2.80;99.90;;;;;;4975445;28;20135;-89
2022/01/25 03:41:37;;;;;;;185.00;55.65;;;-2.80;99.90;;;;;;4928152;29;20070;-88
2022/01/25 03:44:03;;;;;;;176.13;54.30;;;-2.80;99.90;;;;;;4927844;29;20472;-89
2022/01/25 03:51:41;;;;;;;197.52;55.97;;;-3.10;99.90;;;;;;4960936;29;20439;-89
2022/01/25 03:54:07;;;;;;;183.38;52.53;;;-3.10;99.90;;;;;;4943673;29;20019;-89
2022/01/25 03:56:33;;;;;;;186.73;55.83;;;-3.10;99.90;;;;;;4975710;28;20016;-89
2022/01/25 03:58:59;;;;;;;183.07;55.63;;;-3.20;99.90;;;;;;4927661;29;20035;-88
2022/01/25 04:01:24;;;;;;;183.98;55.17;;;-3.20;99.90;;;;;;4927761;29;20126;-89
2022/01/25 04:04:09;;;;;;;180.48;53.28;;;-3.30;99.90;;;;;;4942857;29;20073;-89
2022/01/25 04:06:36;;;;;;;169.48;51.08;;;-3.30;99.90;;;;;;4927771;29;20390;-89
2022/01/25 04:09:05;;;;;;;164.80;51.78;;;-3.30;99.90;;;;;;4927881;28;20496;-90
2022/01/25 04:11:31;;;;;;;183.38;50.67;;;-3.40;99.90;;;;;;4942477;29;20039;-89
2022/01/25 04:13:58;;;;;;;171.45;52.90;;;-3.40;99.90;;;;;;4927198;29;20151;-89
2022/01/25 04:16:32;;;;;;;190.27;56.08;;;-3.50;99.90;;;;;;4927391;29;20054;-90
2022/01/25 04:26:45;;;;;;;192.68;55.95;;;-3.50;99.90;;;;;;4958793;29;20043;-89
2022/01/25 04:29:11;;;;;;;201.15;56.08;;;-3.50;99.90;;;;;;4926873;29;20035;-89
2022/01/25 04:31:37;;;;;;;187.52;56.80;;;-3.50;99.90;;;;;;4927095;29;20027;-89
2022/01/25 04:50:25;;;;;;;198.63;61.70;;;-3.40;99.90;;;;;;4957893;29;20121;-89
2022/01/25 04:53:02;;;;;;;202.85;59.72;;;-3.40;99.90;;;;;;4926872;29;20383;-89
2022/01/25 04:55:38;;;;;;;198.95;58.40;;;-3.50;99.90;;;;;;4926667;29;20103;-89
2022/01/25 04:58:12;;;;;;;201.25;59.13;;;-3.50;99.90;;;;;;4926419;29;20038;-89
2022/01/25 05:00:38;;;;;;;206.32;60.30;;;-3.60;99.90;;;;;;4926207;29;20497;-89
2022/01/25 05:03:13;;;;;;;207.15;58.55;;;-3.60;99.90;;;;;;4925540;29;20505;-88
2022/01/25 05:05:56;;;;;;;197.95;58.35;;;-3.70;99.90;;;;;;4925677;29;20027;-87
2022/01/25 05:08:33;;;;;;;215.23;60.03;;;-3.70;99.90;;;;;;4958162;29;20090;-89
2022/01/25 05:11:06;;;;;;;199.13;58.90;;;-3.70;99.90;;;;;;4942385;29;20086;-86
2022/01/25 05:16:50;;;;;;;217.15;64.28;;;-3.70;99.90;;;;;;4973776;28;20122;-89
2022/01/25 05:19:19;;;;;;;196.40;62.60;;;-3.60;99.90;;;;;;4934605;29;20042;-89
2022/01/25 05:22:05;;;;;;;227.60;63.40;;;-3.50;99.90;;;;;;4957677;28;20094;-88
2022/01/25 05:24:40;;;;;;;194.38;59.83;;;-3.60;99.90;;;;;;4925787;29;20042;-89
2022/01/25 05:27:07;;;;;;;200.90;58.00;;;-3.70;99.90;;;;;;4940907;29;20035;-88
2022/01/25 05:29:32;;;;;;;201.35;60.90;;;-3.80;99.90;;;;;;4925095;29;20094;-89
2022/01/25 05:31:58;;;;;;;199.95;63.83;;;-3.80;99.90;;;;;;4957433;29;20027;-88
2022/01/25 05:34:24;;;;;;;203.75;59.67;;;-3.60;99.90;;;;;;4924673;29;20043;-89
2022/01/25 05:36:50;;;;;;;192.68;59.90;;;-3.60;99.90;;;;;;4940832;29;20039;-88
2022/01/25 05:39:21;;;;;;;206.88;57.15;;;-3.60;99.90;;;;;;4925104;29;20094;-89
2022/01/25 05:41:55;;;;;;;209.48;59.55;;;-3.70;99.90;;;;;;4924713;29;20042;-89
2022/01/25 05:47:05;;;;;;;200.55;60.65;;;-3.70;99.90;;;;;;4972487;28;20085;-88
2022/01/25 05:49:35;;;;;;;;;;;-3.70;99.90;;;;;;4925038;29;20035;-89
2022/01/25 05:52:02;;;;;;;198.02;62.58;;;-3.70;99.90;;;;;;4972120;28;19914;-88
2022/01/25 05:54:28;;;;;;;216.68;67.75;;;-3.70;99.90;;;;;;4939924;29;20098;-89
2022/01/25 05:56:54;;;;;;;230.65;71.85;;;-3.70;99.90;;;;;;4924347;29;20058;-89
2022/01/25 05:59:20;;;;;;;213.05;66.65;;;-3.60;99.90;;;;;;4924589;29;20576;-89
2022/01/25 06:01:48;;;;;;;220.93;65.97;;;-3.60;99.90;;;;;;4941687;29;20031;-90
2022/01/25 06:04:14;;;;;;;198.82;63.92;;;-3.60;99.90;;;;;;4941677;29;20114;-89
2022/01/25 06:06:40;;;;;;;214.55;64.63;;;-3.60;99.90;;;;;;4943387;29;20099;-90
2022/01/25 06:09:05;;;;;;;211.25;62.75;;;-3.60;99.90;;;;;;4942763;29;20506;-89
2022/01/25 06:11:32;;;;;;;192.55;61.13;;;-3.70;99.90;;;;;;4940767;29;20363;-89
2022/01/25 06:13:58;;;;;;;186.43;59.70;;;-3.80;99.90;;;;;;4925947;29;20023;-89
2022/01/25 06:16:28;;;;;;;200.25;60.58;;;-3.90;99.90;;;;;;4926586;29;20085;-89
2022/01/25 06:18:54;;;;;;;208.18;64.68;;;-3.90;99.90;;;;;;4925575;29;20042;-90
2022/01/25 06:21:20;;;;;;;202.18;67.93;;;-4.00;99.90;;;;;;4926763;29;20046;-88
2022/01/25 06:23:46;;;;;;;203.00;68.30;;;-4.00;99.90;;;;;;4928856;29;20035;-90
2022/01/25 06:26:11;;;;;;;190.23;62.97;;;-4.00;99.90;;;;;;4962030;29;20118;-89
2022/01/25 06:28:37;;;;;;;186.77;62.20;;;-4.00;99.90;;;;;;4942094;29;20042;-88
2022/01/25 06:31:03;;;;;;;207.10;66.43;;;-4.00;99.90;;;;;;4941516;29;20032;-89
2022/01/25 06:33:29;;;;;;;219.95;69.50;;;-3.90;99.90;;;;;;4926475;29;20063;-88
2022/01/25 06:35:56;;;;;;;213.50;66.28;;;-3.80;99.90;;;;;;4928806;29;20039;-88
2022/01/25 06:38:22;;;;;;;239.75;71.63;;;-3.80;99.90;;;;;;4944426;29;20043;-87
2022/01/25 06:40:47;;;;;;;214.13;69.32;;;-3.60;99.90;;;;;;4943398;29;20525;-88
2022/01/25 06:43:13;;;;;;;224.90;65.22;;;-3.60;99.90;;;;;;4929780;29;20125;-89
2022/01/25 06:45:41;;;;;;;206.43;64.93;;;-3.70;99.90;;;;;;4960530;29;20035;-89
2022/01/25 06:48:07;;;;;;;211.68;63.65;;;-3.90;99.90;;;;;;4928553;29;20047;-88
2022/01/25 06:50:34;;;;;;;204.65;65.00;;;-4.00;99.90;;;;;;4930951;29;20027;-89
2022/01/25 06:53:00;;;;;;;248.02;72.72;;;-4.00;99.90;;;;;;4961358;28;20046;-89
2022/01/25 06:55:26;;;;;;;231.88;68.85;;;-3.80;99.90;;;;;;4929614;29;20058;-88
2022/01/25 06:57:51;;;;;;;229.98;72.55;;;-3.60;99.90;;;;;;4929079;29;20031;-88
2022/01/25 07:00:20;;;;;;;246.63;70.03;;;-3.60;99.90;;;;;;4929145;29;20035;-88
2022/01/25 07:02:47;;;;;;;242.60;71.00;;;-3.70;99.90;;;;;;4929292;29;20363;-89
2022/01/25 07:05:13;;;;;;;251.98;75.03;;;-3.80;99.90;;;;;;4928275;29;20027;-88
2022/01/25 07:07:40;;;;;;;252.27;76.22;;;-3.90;99.90;;;;;;4928291;29;20098;-89
2022/01/25 07:10:07;;;;;;;234.50;76.30;;;-3.90;99.90;;;;;;4930461;29;20232;-90
2022/01/25 07:12:34;;;;;;;240.50;77.05;;;-3.90;99.90;;;;;;4947668;29;20043;-91
2022/01/25 07:15:00;;;;;;;228.27;77.82;;;-3.90;99.90;;;;;;4933674;29;20035;-91
2022/01/25 07:17:26;;;;;;;230.85;81.28;;;-3.80;99.90;;;;;;4933771;29;20038;-90
2022/01/25 07:20:06;;;;;;;232.60;78.95;;;-3.80;99.90;;;;;;4948930;29;20470;-91
2022/01/25 07:22:33;;;;;;;246.05;76.95;;;-3.80;99.90;;;;;;4948103;29;20050;-91
2022/01/25 07:24:59;;;;;;;240.25;76.47;;;-3.80;99.90;;;;;;4932934;29;20031;-89
2022/01/25 07:27:25;;;;;;;231.55;73.45;;;-3.70;99.90;;;;;;4950100;29;20039;-91
2022/01/25 07:29:51;;;;;;;230.90;75.18;;;-3.70;99.90;;;;;;4933045;29;20062;-90
2022/01/25 07:32:16;;;;;;;229.57;72.60;;;-3.70;99.90;;;;;;4949481;29;20035;-91
2022/01/25 07:34:42;;;;;;;244.55;73.55;;;-3.60;99.90;;;;;;4952336;29;20362;-90
2022/01/25 07:37:08;;;;;;;255.93;76.03;;;-3.40;99.90;;;;;;4936720;29;20032;-90
2022/01/25 07:39:34;;;;;;;241.95;74.57;;;-3.50;99.90;;;;;;4935604;29;20062;-90
2022/01/25 07:42:00;;;;;;;260.85;78.00;;;-3.50;99.90;;;;;;4933865;29;20043;-90
2022/01/25 07:44:45;;;;;;;249.43;76.50;;;-3.40;99.90;;;;;;4951791;29;20070;-90
2022/01/25 07:47:11;;;;;;;246.02;76.82;;;-3.40;99.90;;;;;;4933875;29;20121;-90
2022/01/25 07:49:37;;;;;;;236.32;75.43;;;-3.40;99.90;;;;;;4949411;29;20031;-91
2022/01/25 07:52:04;;;;;;;244.18;78.18;;;-3.30;99.90;;;;;;4933863;29;20031;-91
2022/01/25 07:54:30;;;;;;;243.43;77.45;;;-3.30;99.90;;;;;;4934379;29;20035;-90
2022/01/25 07:56:56;;;;;;;239.30;77.65;;;-3.30;99.90;;;;;;4933820;29;20029;-90
2022/01/25 07:59:22;;;;;;;255.65;79.78;;;-3.30;99.90;;;;;;4933656;29;20090;-90
2022/01/25 08:01:51;;;;;;;250.32;81.43;;;-3.20;99.90;;;;;;4932288;29;20098;-90
2022/01/25 08:04:18;;;;;;;219.30;77.68;;;-3.20;99.90;;;;;;4930197;29;20027;-88
2022/01/25 08:06:44;;;;;;;255.25;81.05;;;-3.20;99.90;;;;;;4926807;29;20095;-88
2022/01/25 08:09:10;;;;;;;244.90;82.78;;;-3.20;99.90;;;;;;4929437;29;20066;-89
2022/01/25 08:11:37;;;;;;;239.63;80.80;;;-3.10;99.90;;;;;;4931829;29;20031;-89
2022/01/25 08:14:16;;;;;;;261.15;86.20;;;-3.00;99.90;;;;;;4929553;29;20090;-88
2022/01/25 08:16:48;;;;;;;280.67;88.28;;;-2.90;99.90;;;;;;4932193;29;20068;-89
2022/01/25 08:19:15;;;;;;;287.77;93.25;;;-2.70;99.90;;;;;;4929891;29;20032;-89
2022/01/25 08:21:41;;;;;;;296.35;99.28;;;-2.70;99.90;;;;;;4933401;29;20027;-91
2022/01/25 08:24:08;;;;;;;287.40;94.97;;;-2.60;99.90;;;;;;4932125;29;20015;-90
2022/01/25 08:26:34;;;;;;;281.02;93.15;;;-2.40;99.90;;;;;;4931481;29;20036;-91
2022/01/25 08:29:00;;;;;;;262.63;87.10;;;-2.10;99.90;;;;;;4930960;29;20394;-90
2022/01/25 08:31:26;;;;;;;281.90;87.07;;;-1.80;99.90;;;;;;4932071;29;20032;-90
2022/01/25 08:33:53;;;;;;;286.88;80.82;;;-1.60;99.90;;;;;;4932515;29;20035;-90
2022/01/25 08:36:19;;;;;;;282.90;80.07;;;-1.40;99.90;;;;;;4950045;29;20035;-90
2022/01/25 08:38:44;;;;;;;294.10;82.53;;;-1.40;99.90;;;;;;4966168;29;20517;-89
2022/01/25 08:41:11;;;;;;;290.40;84.57;;;-1.20;99.90;;;;;;4948892;29;20031;-89
2022/01/25 08:43:36;;;;;;;294.85;84.20;;;-1.10;99.90;;;;;;4931933;29;20066;-89
2022/01/25 08:46:03;;;;;;;298.80;82.55;;;-1.00;99.90;;;;;;4932318;29;20035;-89
2022/01/25 08:48:29;;;;;;;291.17;81.50;;;-0.80;99.90;;;;;;4932603;29;20039;-89
2022/01/25 08:50:55;;;;;;;307.73;85.18;;;-0.60;99.90;;;;;;4933512;29;20127;-89
2022/01/25 08:53:21;;;;;;;411.75;84.05;;;-0.40;99.90;;;;;;4933056;29;20038;-89
2022/01/25 08:55:47;;;;;;;514.58;79.72;;;-0.30;99.90;;;;;;4931921;29;20023;-92
2022/01/25 08:58:13;;;;;;;556.38;84.30;;;-0.40;99.90;;;;;;4947534;29;20046;-89
2022/01/25 09:00:38;;;;;;;607.47;85.30;;;-0.30;99.90;;;;;;4931256;29;20070;-89
2022/01/25 09:03:04;;;;;;;421.23;76.35;;;-0.30;99.90;;;;;;4932859;29;20035;-89
2022/01/25 09:05:30;;;;;;;462.63;77.80;;;-0.30;99.90;;;;;;4932382;29;20023;-91
2022/01/25 09:07:57;;;;;;;524.67;76.20;;;-0.20;99.90;;;;;;4946271;29;20110;-90
2022/01/25 09:10:25;;;;;;;512.15;74.90;;;-0.20;99.90;;;;;;4930799;29;20525;-90
2022/01/25 09:12:50;;;;;;;593.83;83.80;;;-0.20;99.90;;;;;;4978259;28;20066;-90
2022/01/25 09:15:16;;;;;;;352.50;74.65;;;-0.10;99.90;;;;;;4946338;29;20391;-90
2022/01/25 09:17:42;;;;;;;712.47;87.45;;;-0.10;99.90;;;;;;4961230;29;20548;-89
2022/01/25 09:20:08;;;;;;;519.22;77.13;;;-0.10;99.90;;;;;;4944750;29;20114;-90
2022/01/25 09:22:34;;;;;;;697.28;82.10;;;-0.20;99.90;;;;;;4928143;29;20363;-91
2022/01/25 09:25:00;;;;;;;600.75;77.88;;;-0.10;99.90;;;;;;4926768;29;20043;-90
2022/01/25 09:27:25;;;;;;;622.85;76.78;;;-0.20;99.90;;;;;;4958106;29;20039;-90
2022/01/25 09:29:51;;;;;;;419.77;65.35;;;-0.20;99.90;;;;;;4941471;29;20040;-89
2022/01/25 09:32:19;;;;;;;709.53;92.85;;;-0.10;99.90;;;;;;4956732;29;20422;-89
2022/01/25 09:34:45;;;;;;;819.70;89.28;;;-0.10;99.90;;;;;;4925005;29;20386;-88
2022/01/25 09:37:11;;;;;;;672.17;84.05;;;0.00;99.90;;;;;;4924943;29;20520;-89
2022/01/25 09:39:37;;;;;;;423.38;66.95;;;-0.10;99.90;;;;;;4925096;29;20118;-88
2022/01/25 09:42:07;;;;;;;545.05;70.95;;;0.10;99.90;;;;;;4925029;29;20043;-89
2022/01/25 09:44:35;;;;;;;490.97;63.57;;;0.20;99.90;;;;;;4925178;29;20031;-89
2022/01/25 09:47:01;;;;;;;202.23;51.58;;;0.30;99.90;;;;;;4957301;29;20126;-89
2022/01/25 09:49:27;;;;;;;462.88;64.63;;;0.40;99.90;;;;;;4929283;29;20513;-89
2022/01/25 09:51:55;;;;;;;456.65;57.20;;;0.60;99.90;;;;;;4941189;29;20027;-90
2022/01/25 09:54:21;;;;;;;726.28;66.15;;;0.60;99.90;;;;;;4928914;29;20058;-89
2022/01/25 09:56:47;;;;;;;229.48;50.03;;;0.50;99.90;;;;;;4928918;29;20118;-90
2022/01/25 09:59:12;;;;;;;307.02;54.03;;;0.60;99.90;;;;;;4925400;29;20106;-90
2022/01/25 10:01:38;;;;;;;567.55;60.17;;;0.80;99.90;;;;;;4941483;29;20090;-89
2022/01/25 10:04:29;;;;;;;273.73;47.70;;;0.80;99.90;;;;;;4926323;29;20037;-89
2022/01/25 10:06:55;;;;;;;364.40;47.70;;;0.80;99.90;;;;;;4941178;29;20041;-88
2022/01/25 10:09:22;;;;;;;455.38;48.83;;;0.80;99.90;;;;;;4925325;29;20066;-88
2022/01/25 10:11:49;;;;;;;387.15;47.63;;;0.70;99.90;;;;;;4926114;29;20035;-89
2022/01/25 10:14:15;;;;;;;345.40;46.40;;;0.70;99.90;;;;;;4928142;29;20430;-89
2022/01/25 10:16:45;;;;;;;346.45;43.38;;;1.00;99.90;;;;;;4927769;29;20023;-88
2022/01/25 10:19:12;;;;;;;215.48;35.90;;;1.30;99.90;;;;;;4943679;29;20501;-89
2022/01/25 10:21:49;;;;;;;570.80;51.85;;;1.20;99.90;;;;;;4943410;29;20077;-89
2022/01/25 10:24:20;;;;;;;313.48;40.20;;;1.20;99.90;;;;;;4927793;29;20038;-88
2022/01/25 10:26:53;;;;;;;529.35;51.85;;;1.30;99.90;;;;;;4941095;29;20598;-82
2022/01/25 10:29:30;;;;;;;199.90;39.70;;;0.90;99.90;;;;;;4955496;29;20439;-82
2022/01/25 10:32:12;;;;;;;497.67;45.97;;;1.20;99.90;;;;;;4938517;29;20501;-82
2022/01/25 10:34:43;;;;;;;298.00;43.70;;;1.20;99.90;;;;;;4954096;29;20027;-83
2022/01/25 10:37:25;;;;;;;451.65;87.78;;;1.20;99.90;;;;;;4970344;28;20516;-82
2022/01/25 10:39:52;;;;;;;333.17;66.95;;;1.40;99.90;;;;;;4969993;28;20126;-83
2022/01/25 10:42:23;;;;;;;576.67;101.20;;;1.80;99.90;;;;;;4922310;29;20035;-82
2022/01/25 10:45:03;;;;;;;454.17;46.88;;;2.00;99.90;;;;;;4922089;29;20681;-82
2022/01/25 10:47:49;;;;;;;454.85;47.25;;;1.60;99.90;;;;;;4938262;29;20071;-82
2022/01/25 10:50:39;;;;;;;373.65;37.35;;;1.60;99.90;;;;;;4922236;29;20122;-82
2022/01/25 10:53:15;;;;;;;355.85;62.20;;;1.70;99.90;;;;;;4922201;29;20031;-82
2022/01/25 10:55:45;;;;;;;202.57;42.47;;;1.90;99.90;;;;;;4922130;29;20035;-82
2022/01/25 10:58:12;;;;;;;227.60;38.88;;;2.00;99.90;;;;;;4954032;29;20070;-82
2022/01/25 11:00:43;;;;;;;441.23;45.97;;;2.10;99.90;;;;;;4954640;29;20027;-82
2022/01/25 11:03:10;;;;;;;242.52;41.40;;;1.90;99.90;;;;;;4954092;29;20541;-82
2022/01/25 11:05:46;;;;;;;198.18;37.95;;;1.80;99.90;;;;;;4921936;29;20031;-82
2022/01/25 11:08:15;;;;;;;312.83;36.30;;;2.10;99.90;;;;;;4954997;29;20035;-82
2022/01/25 11:10:53;;;;;;;453.48;39.22;;;2.30;99.90;;;;;;4921945;29;20038;-83
2022/01/25 11:15:59;;;;;;;283.67;35.88;;;2.00;99.90;;;;;;4970029;28;20123;-82
2022/01/25 11:18:25;;;;;;;253.68;38.53;;;2.40;99.90;;;;;;4922041;28;20031;-82
2022/01/25 11:20:53;;;;;;;184.13;34.40;;;2.40;99.90;;;;;;4924966;29;20081;-82
2022/01/25 11:23:20;;;;;;;149.95;46.33;;;2.20;99.90;;;;;;4924919;29;20540;-83
2022/01/25 11:25:48;;;;;;;232.20;39.03;;;2.60;99.90;;;;;;4925357;29;20035;-82
2022/01/25 11:28:14;;;;;;;90.95;31.95;;;2.70;99.90;;;;;;4956679;29;20042;-83
2022/01/25 11:30:42;;;;;;;116.15;34.35;;;2.70;99.90;;;;;;4925230;29;20394;-83
2022/01/25 11:33:10;;;;;;;163.95;35.08;;;2.90;99.90;;;;;;4925032;29;20078;-82
2022/01/25 11:35:37;;;;;;;174.93;34.22;;;3.30;99.90;;;;;;4972990;28;20478;-82
2022/01/25 11:38:05;;;;;;;261.98;34.20;;;2.90;99.90;;;;;;4973041;28;20110;-82
2022/01/25 11:40:40;;;;;;;209.90;35.42;;;2.90;99.90;;;;;;4940837;29;20114;-82
2022/01/25 11:43:09;;;;;;;100.45;34.08;;;2.90;99.90;;;;;;4924680;29;20035;-82
2022/01/25 11:45:41;;;;;;;123.68;28.88;;;3.00;99.90;;;;;;4957990;29;20023;-82
2022/01/25 11:48:08;;;;;;;79.50;30.42;;;3.00;99.90;;;;;;4941738;29;20035;-83
2022/01/25 11:50:37;;;;;;;181.65;36.63;;;3.00;99.90;;;;;;4924960;29;20023;-83
2022/01/25 11:53:07;;;;;;;136.45;31.90;;;2.90;99.90;;;;;;4940683;29;20031;-83
2022/01/25 11:55:52;;;;;;;254.38;35.85;;;2.80;99.90;;;;;;4924999;29;20037;-83
2022/01/25 11:58:31;;;;;;;186.88;32.40;;;2.70;99.90;;;;;;4956791;29;20043;-82
2022/01/25 12:00:58;;;;;;;221.57;32.25;;;2.20;99.90;;;;;;4924651;29;20035;-82
2022/01/25 12:03:30;;;;;;;329.23;35.70;;;2.10;99.90;;;;;;4956145;29;20035;-83
2022/01/25 12:06:17;;;;;;;135.23;28.83;;;1.90;99.90;;;;;;4956294;29;20035;-83
2022/01/25 12:11:40;;;;;;;103.78;30.48;;;2.10;99.90;;;;;;4972649;28;20063;-83
2022/01/25 12:14:32;;;;;;;71.15;28.52;;;2.40;99.90;;;;;;4956261;29;20031;-83
2022/01/25 12:17:04;;;;;;;118.53;31.20;;;2.70;99.90;;;;;;4927553;29;20090;-83
2022/01/25 12:19:48;;;;;;;86.60;31.25;;;2.60;99.90;;;;;;4973010;28;20453;-82
2022/01/25 12:25:19;;;;;;;74.47;30.70;;;2.70;99.90;;;;;;4971895;28;20074;-82
2022/01/25 12:28:00;;;;;;;239.43;34.55;;;2.50;99.90;;;;;;4955959;29;20442;-82
2022/01/25 12:30:25;;;;;;;86.67;32.50;;;2.60;99.90;;;;;;4923102;29;20042;-82
2022/01/25 12:33:03;;;;;;;105.88;30.23;;;2.40;99.90;;;;;;4971612;28;20031;-83
2022/01/25 12:35:36;;;;;;;113.95;33.83;;;2.30;99.90;;;;;;4924043;29;20028;-83
2022/01/25 12:38:16;;;;;;;99.18;27.35;;;2.40;99.90;;;;;;4957342;29;20079;-82
2022/01/25 12:40:49;;;;;;;166.20;31.65;;;2.60;99.90;;;;;;4939933;29;20039;-83
2022/01/25 12:43:20;;;;;;;126.57;31.90;;;2.50;99.90;;;;;;4923957;29;20031;-82
2022/01/25 12:46:11;;;;;;;124.65;31.10;;;2.60;99.90;;;;;;4955823;29;20062;-83
2022/01/25 12:48:41;;;;;;;137.02;29.33;;;2.50;99.90;;;;;;4939694;29;20170;-82
2022/01/25 12:51:10;;;;;;;80.78;28.35;;;2.70;99.90;;;;;;4939933;29;20067;-82
2022/01/25 12:53:41;;;;;;;142.57;27.75;;;2.70;99.90;;;;;;4955760;29;20498;-82
2022/01/25 12:56:12;;;;;;;96.22;31.10;;;2.70;99.90;;;;;;4939740;29;20019;-82
2022/01/25 12:58:38;;;;;;;102.38;30.15;;;2.40;99.90;;;;;;4955656;29;20050;-82
2022/01/25 13:01:10;;;;;;;63.47;27.10;;;2.30;99.90;;;;;;4939488;29;20049;-83
2022/01/25 13:03:46;;;;;;;115.25;33.83;;;2.00;99.90;;;;;;4955177;29;20059;-83
2022/01/25 13:06:21;;;;;;;190.43;32.35;;;1.90;99.90;;;;;;4939586;29;20039;-82
2022/01/25 13:09:10;;;;;;;204.98;36.15;;;1.80;99.90;;;;;;4939282;29;20126;-82
2022/01/25 13:14:50;;;;;;;263.80;33.90;;;1.70;99.90;;;;;;4971277;28;20482;-83
2022/01/25 13:17:17;;;;;;;272.83;33.60;;;1.60;99.90;;;;;;4939343;29;20529;-83
2022/01/25 13:19:52;;;;;;;234.30;33.17;;;1.60;99.90;;;;;;4955207;29;20035;-83
2022/01/25 13:22:20;;;;;;;146.13;26.17;;;1.70;99.90;;;;;;4923705;29;20035;-83
2022/01/25 13:25:13;;;;;;;276.88;33.08;;;1.80;99.90;;;;;;4922849;29;20482;-83
2022/01/25 13:27:50;;;;;;;112.32;28.58;;;1.80;99.90;;;;;;4918098;29;20055;-83
2022/01/25 13:30:40;;;;;;;74.78;24.77;;;1.90;99.90;;;;;;4922411;29;20398;-77
2022/01/25 13:33:06;;;;;;;198.43;30.65;;;1.90;99.90;;;;;;4970201;28;20139;-77
2022/01/25 13:35:36;;;;;;;307.42;32.17;;;1.90;99.90;;;;;;4955377;29;20019;-78
2022/01/25 13:38:05;;;;;;;87.40;28.70;;;1.80;99.90;;;;;;4955286;29;20038;-84
2022/01/25 13:40:46;;;;;;;84.13;29.23;;;1.80;99.90;;;;;;4972259;28;20034;-85
2022/01/25 13:46:13;;;;;;;421.65;39.90;;;2.20;99.90;;;;;;4957860;29;20367;-86
2022/01/25 13:48:39;;;;;;;345.27;34.83;;;2.00;99.90;;;;;;4972133;28;20498;-85
2022/01/25 13:51:12;;;;;;;348.38;36.90;;;1.70;99.90;;;;;;4924406;29;20035;-85
2022/01/25 13:53:39;;;;;;;340.58;35.92;;;1.40;99.90;;;;;;4924553;29;20039;-85
2022/01/25 13:56:08;;;;;;;304.90;34.10;;;1.10;99.90;;;;;;4925023;29;20122;-85
2022/01/25 13:58:42;;;;;;;431.58;37.17;;;1.10;99.90;;;;;;4939092;29;20035;-85
2022/01/25 14:01:10;;;;;;;446.35;42.63;;;1.10;99.90;;;;;;4956036;29;20066;-85
2022/01/25 14:03:43;;;;;;;473.13;43.47;;;0.90;99.90;;;;;;4970770;28;20044;-84
2022/01/25 14:06:40;;;;;;;478.92;44.92;;;0.80;99.90;;;;;;4923150;29;20043;-84
2022/01/25 14:09:12;;;;;;;401.77;34.65;;;0.70;99.90;;;;;;4923858;29;20059;-85
2022/01/25 14:24:56;;;;;;;342.75;33.25;;;0.50;99.90;;;;;;4971705;28;20050;-85
2022/01/25 14:27:29;;;;;;;195.32;29.05;;;0.40;99.90;;;;;;4923667;29;20485;-85
2022/01/25 14:29:55;;;;;;;454.33;41.25;;;0.40;99.90;;;;;;4924017;29;20054;-84
2022/01/25 14:32:33;;;;;;;541.15;42.97;;;0.40;99.90;;;;;;4924202;29;20381;-85
2022/01/25 14:35:11;;;;;;;382.38;33.72;;;0.30;99.90;;;;;;4924336;29;20113;-86
2022/01/25 14:37:49;;;;;;;360.52;34.72;;;0.30;99.90;;;;;;4923632;29;20074;-85
2022/01/25 14:40:16;;;;;;;163.50;30.42;;;0.30;99.90;;;;;;4923925;29;20031;-85
2022/01/25 14:42:45;;;;;;;263.67;34.78;;;0.40;99.90;;;;;;4940581;29;20027;-84